createdAt,value
2023-05-13T00:01:38.416Z,24.59
2023-05-13T00:06:48.619Z,24.47
2023-05-13T00:09:16.848Z,25.43
2023-05-13T00:11:45.069Z,25.24
2023-05-13T00:14:13.382Z,24.90
2023-05-13T00:16:43.371Z,25.51
2023-05-13T00:19:12.188Z,25.13
2023-05-13T00:21:41.134Z,24.70
2023-05-13T00:24:09.452Z,24.13
2023-05-13T00:26:37.674Z,25.25
2023-05-13T00:29:05.882Z,25.03
2023-05-13T00:31:34.213Z,24.91
2023-05-13T00:34:04.226Z,24.46
2023-05-13T00:36:32.469Z,24.24
2023-05-13T00:39:00.671Z,24.10
2023-05-13T00:41:28.927Z,23.88
2023-05-13T00:43:57.759Z,24.34
2023-05-13T00:46:26.117Z,23.79
2023-05-13T00:48:54.495Z,24.17
2023-05-13T00:51:24.104Z,23.86
2023-05-13T00:53:52.847Z,24.25
2023-05-13T00:56:21.819Z,24.50
2023-05-13T00:58:50.318Z,23.89
2023-05-13T01:01:35.952Z,24.82
2023-05-13T01:04:13.535Z,24.72
2023-05-13T01:06:53.601Z,24.36
2023-05-13T01:09:30.723Z,22.94
2023-05-13T01:12:04.352Z,24.81
2023-05-13T01:14:35.444Z,24.04
2023-05-13T01:17:11.437Z,24.54
2023-05-13T01:19:44.065Z,24.97
2023-05-13T01:22:14.186Z,23.68
2023-05-13T01:24:42.401Z,23.29
2023-05-13T01:27:10.780Z,23.95
2023-05-13T01:29:40.835Z,23.12
2023-05-13T01:32:09.952Z,24.11
2023-05-13T01:34:38.699Z,23.95
2023-05-13T01:37:07.070Z,23.35
2023-05-13T01:39:38.600Z,24.20
2023-05-13T01:42:07.278Z,23.83
2023-05-13T01:44:35.804Z,24.61
2023-05-13T01:47:04.123Z,24.64
2023-05-13T01:49:32.367Z,25.69
2023-05-13T01:52:00.630Z,24.31
2023-05-13T01:54:28.807Z,22.95
2023-05-13T01:56:58.412Z,23.58
2023-05-13T01:59:26.603Z,23.10
2023-05-13T02:01:54.879Z,23.85
2023-05-13T02:04:23.217Z,23.43
2023-05-13T02:06:51.535Z,23.03
2023-05-13T02:09:19.872Z,23.32
2023-05-13T02:11:48.230Z,22.95
2023-05-13T02:14:17.959Z,23.74
2023-05-13T02:16:46.295Z,24.04
2023-05-13T02:19:14.589Z,23.38
2023-05-13T02:21:43.543Z,23.14
2023-05-13T02:24:11.848Z,23.52
2023-05-13T02:26:41.568Z,23.96
2023-05-13T02:29:09.884Z,22.01
2023-05-13T02:31:39.505Z,21.69
2023-05-13T02:34:07.732Z,23.50
2023-05-13T02:36:36.007Z,21.86
2023-05-13T02:39:04.317Z,23.12
2023-05-13T02:41:32.676Z,22.54
2023-05-13T02:44:00.946Z,22.44
2023-05-13T02:46:29.228Z,22.43
2023-05-13T02:48:59.353Z,22.63
2023-05-13T02:51:27.612Z,22.86
2023-05-13T02:53:55.840Z,23.22
2023-05-13T02:56:24.135Z,22.87
2023-05-13T02:58:52.518Z,23.12
2023-05-13T03:01:20.894Z,23.42
2023-05-13T03:03:49.181Z,21.66
2023-05-13T03:06:18.866Z,21.07
2023-05-13T03:08:47.210Z,22.65
2023-05-13T03:11:15.534Z,23.05
2023-05-13T03:13:43.790Z,22.33
2023-05-13T03:16:12.037Z,22.10
2023-05-13T03:18:40.429Z,22.41
2023-05-13T03:21:08.719Z,23.17
2023-05-13T03:23:38.680Z,22.04
2023-05-13T03:26:06.933Z,23.40
2023-05-13T03:28:35.182Z,22.76
2023-05-13T03:31:03.478Z,23.61
2023-05-13T03:33:31.780Z,22.66
2023-05-13T03:36:00.032Z,22.85
2023-05-13T03:38:28.281Z,23.53
2023-05-13T03:40:58.149Z,21.97
2023-05-13T03:43:26.767Z,22.21
2023-05-13T03:45:54.971Z,22.16
2023-05-13T03:48:23.178Z,22.91
2023-05-13T03:50:53.093Z,22.76
2023-05-13T03:53:21.310Z,22.93
2023-05-13T03:55:49.896Z,22.45
2023-05-13T03:58:21.696Z,23.69
2023-05-13T04:00:50.388Z,22.85
2023-05-13T04:03:19.097Z,21.84
2023-05-13T04:05:47.858Z,21.55
2023-05-13T04:08:16.477Z,21.52
2023-05-13T04:10:44.872Z,22.70
2023-05-13T04:13:13.183Z,22.72
2023-05-13T04:15:42.760Z,22.77
2023-05-13T04:18:11.028Z,21.78
2023-05-13T04:20:39.944Z,22.20
2023-05-13T04:23:08.243Z,22.27
2023-05-13T04:25:36.869Z,23.73
2023-05-13T04:28:05.504Z,23.27
2023-05-13T04:30:33.744Z,22.87
2023-05-13T04:33:03.492Z,22.44
2023-05-13T04:35:31.797Z,22.68
2023-05-13T04:38:00.120Z,22.43
2023-05-13T04:40:28.437Z,22.19
2023-05-13T04:42:56.649Z,22.22
2023-05-13T04:45:25.079Z,22.21
2023-05-13T04:47:54.900Z,22.04
2023-05-13T04:50:26.058Z,23.08
2023-05-13T04:52:56.478Z,23.51
2023-05-13T04:55:27.389Z,23.03
2023-05-13T04:57:56.047Z,22.71
2023-05-13T05:00:25.062Z,21.26
2023-05-13T05:02:53.307Z,22.59
2023-05-13T05:05:21.562Z,21.97
2023-05-13T05:07:51.163Z,22.08
2023-05-13T05:10:19.863Z,22.28
2023-05-13T05:12:48.998Z,23.11
2023-05-13T05:15:17.291Z,23.76
2023-05-13T05:17:46.152Z,24.17
2023-05-13T05:20:14.469Z,22.88
2023-05-13T05:22:42.844Z,23.07
2023-05-13T05:25:12.544Z,23.25
2023-05-13T05:27:40.741Z,22.88
2023-05-13T05:30:11.309Z,23.17
2023-05-13T05:32:39.415Z,23.09
2023-05-13T05:35:08.622Z,22.99
2023-05-13T05:37:36.880Z,22.45
2023-05-13T05:40:06.113Z,22.86
2023-05-13T05:42:35.777Z,21.72
2023-05-13T05:45:04.445Z,22.94
2023-05-13T05:47:32.670Z,22.17
2023-05-13T05:50:01.280Z,22.48
2023-05-13T05:52:29.497Z,22.38
2023-05-13T05:54:57.698Z,22.54
2023-05-13T05:57:25.920Z,21.48
2023-05-13T05:59:55.575Z,22.10
2023-05-13T06:02:23.986Z,22.60
2023-05-13T06:04:52.264Z,21.72
2023-05-13T06:07:20.657Z,22.72
2023-05-13T06:09:48.931Z,21.92
2023-05-13T06:12:17.229Z,22.83
2023-05-13T06:14:45.488Z,22.23
2023-05-13T06:17:15.747Z,22.77
2023-05-13T06:19:44.015Z,22.90
2023-05-13T06:22:12.820Z,22.98
2023-05-13T06:24:42.663Z,22.77
2023-05-13T06:27:11.606Z,21.83
2023-05-13T06:29:39.861Z,23.44
2023-05-13T06:32:08.544Z,22.06
2023-05-13T06:34:40.057Z,22.08
2023-05-13T06:37:08.587Z,22.52
2023-05-13T06:39:36.926Z,22.35
2023-05-13T06:42:05.832Z,22.73
2023-05-13T06:44:34.143Z,21.97
2023-05-13T06:47:05.023Z,22.81
2023-05-13T06:49:34.308Z,22.24
2023-05-13T06:52:03.940Z,23.36
2023-05-13T06:54:32.177Z,23.48
2023-05-13T06:57:00.837Z,23.19
2023-05-13T06:59:30.311Z,22.81
2023-05-13T07:01:58.566Z,23.14
2023-05-13T07:04:26.834Z,23.17
2023-05-13T07:06:55.393Z,22.22
2023-05-13T07:09:24.989Z,23.17
2023-05-13T07:11:53.262Z,22.54
2023-05-13T07:14:21.479Z,24.59
2023-05-13T07:16:49.799Z,24.44
2023-05-13T07:19:18.246Z,24.00
2023-05-13T07:21:46.566Z,24.55
2023-05-13T07:24:15.074Z,24.33
2023-05-13T07:26:44.629Z,23.63
2023-05-13T07:29:12.869Z,22.52
2023-05-13T07:31:41.186Z,23.30
2023-05-13T07:34:09.524Z,22.95
2023-05-13T07:36:37.822Z,24.66
2023-05-13T07:39:08.745Z,24.61
2023-05-13T07:41:37.468Z,24.92
2023-05-13T07:44:11.683Z,25.18
2023-05-13T07:46:40.082Z,24.86
2023-05-13T07:49:09.150Z,25.11
2023-05-13T07:51:37.604Z,25.75
2023-05-13T07:54:05.852Z,27.03
2023-05-13T07:56:34.156Z,24.66
2023-05-13T07:59:02.392Z,25.50
2023-05-13T08:01:31.968Z,23.81
2023-05-13T08:04:00.564Z,24.83
2023-05-13T08:06:28.932Z,24.65
2023-05-13T08:08:57.218Z,26.56
2023-05-13T08:11:26.953Z,24.74
2023-05-13T08:13:55.219Z,25.74
2023-05-13T08:16:23.507Z,24.26
2023-05-13T08:18:53.413Z,23.86
2023-05-13T08:21:21.752Z,25.06
2023-05-13T08:23:50.979Z,25.16
2023-05-13T08:26:19.322Z,24.21
2023-05-13T08:31:16.911Z,24.53
2023-05-13T08:33:47.411Z,24.43
2023-05-13T08:36:17.607Z,24.20
2023-05-13T08:38:46.109Z,23.20
2023-05-13T08:41:15.102Z,24.47
2023-05-13T08:43:44.218Z,24.06
2023-05-13T08:46:13.199Z,24.69
2023-05-13T08:48:42.830Z,25.45
2023-05-13T08:51:11.221Z,24.93
2023-05-13T08:53:41.517Z,24.75
2023-05-13T08:56:10.266Z,26.04
2023-05-13T08:58:38.476Z,25.91
2023-05-13T09:01:07.226Z,25.44
2023-05-13T09:03:36.242Z,26.95
2023-05-13T09:06:04.994Z,26.26
2023-05-13T09:08:33.442Z,27.16
2023-05-13T09:11:03.133Z,26.75
2023-05-13T09:13:31.337Z,25.98
2023-05-13T09:15:59.610Z,26.82
2023-05-13T09:18:31.229Z,25.80
2023-05-13T09:20:59.518Z,26.24
2023-05-13T09:23:28.153Z,26.07
2023-05-13T09:25:56.444Z,25.49
2023-05-13T09:28:26.272Z,25.47
2023-05-13T09:30:56.830Z,26.01
2023-05-13T09:33:31.487Z,25.47
2023-05-13T09:36:00.120Z,25.08
2023-05-13T09:38:31.606Z,26.32
2023-05-13T09:41:01.486Z,24.24
2023-05-13T09:43:33.343Z,24.89
2023-05-13T09:46:02.847Z,25.80
2023-05-13T09:48:33.744Z,25.07
2023-05-13T09:51:02.195Z,25.32
2023-05-13T09:53:30.873Z,27.36
2023-05-13T09:56:00.422Z,27.05
2023-05-13T09:58:30.825Z,25.72
2023-05-13T10:01:00.835Z,25.48
2023-05-13T10:03:29.665Z,26.10
2023-05-13T10:05:59.013Z,24.79
2023-05-13T10:08:29.366Z,25.76
2023-05-13T10:10:57.926Z,24.42
2023-05-13T10:13:26.276Z,25.80
2023-05-13T10:15:55.591Z,26.01
2023-05-13T10:18:25.560Z,25.50
2023-05-13T10:20:54.178Z,25.64
2023-05-13T10:23:24.180Z,26.42
2023-05-13T10:25:54.797Z,26.72
2023-05-13T10:28:23.312Z,24.93
2023-05-13T10:30:52.622Z,27.41
2023-05-13T10:33:21.808Z,27.73
2023-05-13T10:36:04.882Z,27.49
2023-05-13T10:38:45.340Z,27.66
2023-05-13T10:41:26.863Z,26.54
2023-05-13T10:43:58.089Z,26.37
2023-05-13T10:46:27.582Z,25.49
2023-05-13T10:49:01.546Z,26.81
2023-05-13T10:51:32.254Z,26.20
2023-05-13T10:54:00.527Z,25.92
2023-05-13T10:56:29.823Z,26.90
2023-05-13T10:58:59.310Z,26.99
2023-05-13T11:01:29.982Z,27.10
2023-05-13T11:04:00.120Z,26.44
2023-05-13T11:06:35.271Z,27.73
2023-05-13T11:09:06.336Z,27.24
2023-05-13T11:11:35.598Z,27.57
2023-05-13T11:14:08.815Z,27.42
2023-05-13T11:16:38.123Z,27.31
2023-05-13T11:19:10.903Z,26.60
2023-05-13T11:21:41.293Z,27.08
2023-05-13T11:24:09.707Z,28.29
2023-05-13T11:26:49.074Z,26.83
2023-05-13T11:29:28.812Z,26.77
2023-05-13T11:32:00.274Z,27.41
2023-05-13T11:34:29.454Z,28.27
2023-05-13T11:37:08.643Z,27.86
2023-05-13T11:39:37.450Z,26.99
2023-05-13T11:42:08.921Z,28.23
2023-05-13T11:44:37.854Z,29.42
2023-05-13T11:47:08.133Z,29.07
2023-05-13T11:49:39.786Z,28.12
2023-05-13T11:52:11.298Z,29.70
2023-05-13T11:54:48.521Z,29.38
2023-05-13T11:57:20.534Z,27.67
2023-05-13T11:59:57.661Z,29.70
2023-05-13T12:02:28.131Z,29.25
2023-05-13T12:04:57.104Z,28.25
2023-05-13T12:07:27.697Z,27.20
2023-05-13T12:09:58.236Z,26.17
2023-05-13T12:12:26.886Z,27.04
2023-05-13T12:14:56.223Z,26.38
2023-05-13T12:17:25.024Z,27.63
2023-05-13T12:20:06.639Z,27.95
2023-05-13T12:22:37.124Z,28.29
2023-05-13T12:25:20.465Z,28.09
2023-05-13T12:27:53.085Z,26.99
2023-05-13T12:30:21.504Z,27.44
2023-05-13T12:32:49.797Z,26.17
2023-05-13T12:35:18.079Z,28.07
2023-05-13T12:38:00.280Z,28.36
2023-05-13T12:40:28.554Z,28.67
2023-05-13T12:43:00.170Z,27.95
2023-05-13T12:45:30.165Z,29.16
2023-05-13T12:47:59.347Z,28.31
2023-05-13T12:50:27.958Z,28.10
2023-05-13T12:52:59.907Z,27.76
2023-05-13T12:55:28.286Z,28.35
2023-05-13T12:57:57.462Z,29.41
2023-05-13T13:00:26.724Z,29.86
2023-05-13T13:02:55.066Z,29.82
2023-05-13T13:05:24.248Z,29.76
2023-05-13T13:07:52.713Z,30.08
2023-05-13T13:10:22.431Z,30.23
2023-05-13T13:12:50.854Z,31.00
2023-05-13T13:15:19.067Z,30.64
2023-05-13T13:17:47.421Z,31.88
2023-05-13T13:20:15.737Z,32.72
2023-05-13T13:22:43.961Z,31.59
2023-05-13T13:25:12.220Z,32.74
2023-05-13T13:27:41.935Z,30.35
2023-05-13T13:30:10.798Z,31.40
2023-05-13T13:32:38.999Z,31.48
2023-05-13T13:35:08.067Z,30.79
2023-05-13T13:37:38.059Z,31.57
2023-05-13T13:40:07.551Z,32.69
2023-05-13T13:42:44.238Z,33.31
2023-05-13T13:45:14.967Z,32.12
2023-05-13T13:47:43.570Z,31.71
2023-05-13T13:50:12.813Z,31.79
2023-05-13T13:52:41.101Z,31.90
2023-05-13T13:55:11.622Z,31.85
2023-05-13T13:57:40.154Z,31.96
2023-05-13T14:00:09.577Z,32.07
2023-05-13T14:02:39.263Z,30.42
2023-05-13T14:05:08.580Z,31.51
2023-05-13T14:07:37.317Z,31.47
2023-05-13T14:10:06.524Z,32.05
2023-05-13T14:12:35.929Z,30.89
2023-05-13T14:15:04.554Z,31.34
2023-05-13T14:17:33.332Z,32.37
2023-05-13T14:20:03.676Z,30.67
2023-05-13T14:22:31.906Z,31.24
2023-05-13T14:25:01.345Z,32.75
2023-05-13T14:27:29.811Z,32.57
2023-05-13T14:29:58.078Z,32.57
2023-05-13T14:32:26.391Z,33.28
2023-05-13T14:34:54.625Z,33.71
2023-05-13T14:37:24.245Z,34.32
2023-05-13T14:39:52.440Z,32.19
2023-05-13T14:42:21.155Z,33.49
2023-05-13T14:44:49.358Z,33.17
2023-05-13T14:47:17.664Z,32.77
2023-05-13T14:49:45.881Z,33.22
2023-05-13T14:52:14.230Z,33.52
2023-05-13T14:54:43.869Z,32.06
2023-05-13T14:57:12.223Z,32.91
2023-05-13T14:59:40.469Z,31.19
2023-05-13T15:02:09.320Z,31.90
2023-05-13T15:04:37.565Z,32.33
2023-05-13T15:07:06.309Z,31.30
2023-05-13T15:09:34.633Z,31.14
2023-05-13T15:12:04.306Z,31.36
2023-05-13T15:14:32.549Z,31.61
2023-05-13T15:17:00.942Z,31.90
2023-05-13T15:19:29.294Z,31.70
2023-05-13T15:21:57.634Z,31.58
2023-05-13T15:24:25.903Z,31.45
2023-05-13T15:26:54.189Z,30.72
2023-05-13T15:29:23.794Z,30.62
2023-05-13T15:31:52.039Z,30.90
2023-05-13T15:34:20.320Z,31.12
2023-05-13T15:36:48.688Z,29.94
2023-05-13T15:39:17.537Z,31.10
2023-05-13T15:41:45.835Z,31.69
2023-05-13T15:44:14.169Z,30.60
2023-05-13T15:46:43.814Z,31.09
2023-05-13T15:49:12.132Z,30.74
2023-05-13T15:51:40.411Z,29.96
2023-05-13T15:54:08.733Z,29.65
2023-05-13T15:56:37.103Z,29.39
2023-05-13T15:59:05.376Z,29.57
2023-05-13T16:01:33.755Z,28.80
2023-05-13T16:04:03.400Z,30.09
2023-05-13T16:06:31.849Z,30.10
2023-05-13T16:09:01.787Z,30.27
2023-05-13T16:11:30.310Z,30.35
2023-05-13T16:13:58.772Z,30.04
2023-05-13T16:16:27.136Z,30.58
2023-05-13T16:18:55.556Z,30.61
2023-05-13T16:21:25.324Z,29.85
2023-05-13T16:23:53.634Z,29.82
2023-05-13T16:26:22.432Z,29.47
2023-05-13T16:28:51.114Z,29.35
2023-05-13T16:31:19.639Z,29.69
2023-05-13T16:33:47.911Z,29.95
2023-05-13T16:36:17.436Z,30.44
2023-05-13T16:38:47.452Z,30.61
2023-05-13T16:41:15.738Z,30.41
2023-05-13T16:43:43.942Z,29.72
2023-05-13T16:46:12.249Z,30.34
2023-05-13T16:48:40.579Z,30.65
2023-05-13T16:51:08.905Z,30.48
2023-05-13T16:53:37.147Z,30.30
2023-05-13T16:56:07.084Z,30.11
2023-05-13T16:58:35.353Z,30.10
2023-05-13T17:01:03.726Z,30.32
2023-05-13T17:03:32.077Z,30.12
2023-05-13T17:06:00.381Z,30.57
2023-05-13T17:08:28.698Z,30.15
2023-05-13T17:10:56.966Z,30.51
2023-05-13T17:13:26.668Z,30.27
2023-05-13T17:15:55.042Z,30.58
2023-05-13T17:18:23.561Z,30.77
2023-05-13T17:20:51.881Z,30.37
2023-05-13T17:23:20.212Z,30.27
2023-05-13T17:25:48.562Z,30.59
2023-05-13T17:28:16.813Z,30.65
2023-05-13T17:30:46.530Z,30.69
2023-05-13T17:33:14.829Z,30.69
2023-05-13T17:35:43.136Z,30.54
2023-05-13T17:38:11.384Z,30.31
2023-05-13T17:40:39.631Z,30.36
2023-05-13T17:43:07.945Z,30.60
2023-05-13T17:45:36.634Z,30.81
2023-05-13T17:48:07.102Z,30.94
2023-05-13T17:50:35.272Z,30.95
2023-05-13T17:53:03.478Z,30.87
2023-05-13T17:55:31.722Z,30.72
2023-05-13T17:57:59.964Z,30.49
2023-05-13T18:00:28.406Z,30.70
2023-05-13T18:02:56.675Z,30.75
2023-05-13T18:05:26.302Z,30.41
2023-05-13T18:07:54.601Z,30.35
2023-05-13T18:10:23.052Z,30.30
2023-05-13T18:12:51.863Z,30.01
2023-05-13T18:15:20.157Z,29.91
2023-05-13T18:17:48.463Z,29.45
2023-05-13T18:20:16.954Z,29.38
2023-05-13T18:22:46.704Z,29.16
2023-05-13T18:25:14.924Z,28.81
2023-05-13T18:27:43.157Z,29.00
2023-05-13T18:30:12.789Z,28.95
2023-05-13T18:32:41.026Z,29.23
2023-05-13T18:35:09.998Z,28.83
2023-05-13T18:37:38.484Z,29.41
2023-05-13T18:40:09.732Z,27.92
2023-05-13T18:42:38.042Z,25.23
2023-05-13T18:45:07.910Z,24.12
2023-05-13T18:47:36.210Z,24.36
2023-05-13T18:50:04.698Z,24.30
2023-05-13T18:52:32.911Z,25.26
2023-05-13T18:55:04.580Z,25.85
2023-05-13T18:57:34.194Z,26.10
2023-05-13T19:00:02.423Z,25.04
2023-05-13T19:02:30.896Z,25.52
2023-05-13T19:05:00.116Z,25.98
2023-05-13T19:07:28.566Z,25.10
2023-05-13T19:09:56.817Z,24.41
2023-05-13T19:12:25.090Z,26.22
2023-05-13T19:14:54.746Z,25.92
2023-05-13T19:17:23.097Z,25.13
2023-05-13T19:19:51.385Z,24.78
2023-05-13T19:22:19.610Z,25.43
2023-05-13T19:24:47.866Z,24.75
2023-05-13T19:27:16.104Z,25.37
2023-05-13T19:29:44.414Z,25.58
2023-05-13T19:32:14.005Z,24.72
2023-05-13T19:34:42.193Z,25.21
2023-05-13T19:37:10.635Z,24.97
2023-05-13T19:39:38.885Z,24.94
2023-05-13T19:42:07.416Z,26.21
2023-05-13T19:44:35.729Z,26.44
2023-05-13T19:47:05.751Z,26.46
2023-05-13T19:49:35.324Z,26.17
2023-05-13T19:52:03.592Z,26.43
2023-05-13T19:54:31.873Z,27.23
2023-05-13T19:57:00.285Z,26.92
2023-05-13T19:59:28.676Z,26.95
2023-05-13T20:01:56.907Z,27.28
2023-05-13T20:04:25.166Z,27.35
2023-05-13T20:06:54.742Z,26.92
2023-05-13T20:09:22.956Z,27.26
2023-05-13T20:11:51.236Z,27.55
2023-05-13T20:14:24.965Z,27.50
2023-05-13T20:16:53.276Z,27.50
2023-05-13T20:19:21.730Z,27.08
2023-05-13T20:21:49.983Z,27.24
2023-05-13T20:24:19.601Z,27.24
2023-05-13T20:26:47.981Z,27.05
2023-05-13T20:29:16.178Z,26.38
2023-05-13T20:31:44.459Z,25.58
2023-05-13T20:34:12.714Z,25.61
2023-05-13T20:36:40.926Z,25.28
2023-05-13T20:39:09.128Z,25.05
2023-05-13T20:41:38.782Z,25.11
2023-05-13T20:44:07.049Z,25.90
2023-05-13T20:46:35.405Z,25.82
2023-05-13T20:49:03.657Z,25.14
2023-05-13T20:51:32.000Z,25.30
2023-05-13T20:54:00.234Z,26.06
2023-05-13T20:56:28.467Z,25.31
2023-05-13T20:58:58.091Z,25.96
2023-05-13T21:01:26.586Z,25.93
2023-05-13T21:03:55.005Z,26.15
2023-05-13T21:06:23.231Z,27.01
2023-05-13T21:08:52.131Z,27.26
2023-05-13T21:11:21.352Z,27.29
2023-05-13T21:13:49.561Z,27.42
2023-05-13T21:16:19.252Z,27.18
2023-05-13T21:18:47.529Z,26.74
2023-05-13T21:21:15.822Z,26.25
2023-05-13T21:23:45.620Z,26.71
2023-05-13T21:26:14.487Z,26.81
2023-05-13T21:28:42.762Z,26.67
2023-05-13T21:31:11.110Z,26.84
2023-05-13T21:33:40.958Z,26.06
2023-05-13T21:36:09.554Z,26.66
2023-05-13T21:38:37.830Z,26.20
2023-05-13T21:41:06.136Z,26.42
2023-05-13T21:43:34.455Z,26.65
2023-05-13T21:46:03.250Z,26.25
2023-05-13T21:48:31.580Z,26.49
2023-05-13T21:51:01.192Z,26.67
2023-05-13T21:53:29.898Z,26.88
2023-05-13T21:56:00.251Z,26.46
2023-05-13T21:58:28.717Z,26.36
2023-05-13T22:00:57.056Z,26.56
2023-05-13T22:03:25.559Z,26.30
2023-05-13T22:05:53.836Z,26.14
2023-05-13T22:08:23.438Z,26.43
2023-05-13T22:10:51.750Z,25.94
2023-05-13T22:13:21.439Z,25.01
2023-05-13T22:15:49.852Z,25.30
2023-05-13T22:18:18.131Z,25.20
2023-05-13T22:20:46.446Z,24.76
2023-05-13T22:23:14.666Z,24.73
2023-05-13T22:25:44.259Z,23.78
2023-05-13T22:28:12.499Z,24.44
2023-05-13T22:30:40.709Z,24.82
2023-05-13T22:33:09.007Z,24.73
2023-05-13T22:35:37.318Z,24.90
2023-05-13T22:38:05.678Z,24.16
2023-05-13T22:40:33.968Z,24.49
2023-05-13T22:43:03.588Z,23.99
2023-05-13T22:45:31.830Z,24.92
2023-05-13T22:48:00.191Z,24.87
2023-05-13T22:50:28.603Z,25.12
2023-05-13T22:52:57.494Z,25.31
2023-05-13T22:55:25.699Z,25.29
2023-05-13T22:57:53.959Z,25.31
2023-05-13T23:00:23.948Z,25.58
2023-05-13T23:02:52.410Z,25.52
2023-05-13T23:05:20.703Z,25.40
2023-05-13T23:07:48.905Z,24.72
2023-05-13T23:10:17.267Z,25.40
2023-05-13T23:12:45.509Z,25.39
2023-05-13T23:15:15.955Z,25.46
2023-05-13T23:17:45.736Z,24.78
2023-05-13T23:20:14.074Z,25.55
2023-05-13T23:22:42.330Z,24.56
2023-05-13T23:25:11.171Z,24.68
2023-05-13T23:27:39.420Z,24.84
2023-05-13T23:30:09.077Z,24.77
2023-05-13T23:32:37.405Z,24.53
2023-05-13T23:35:08.413Z,24.56
2023-05-13T23:37:37.354Z,25.07
2023-05-13T23:40:06.905Z,25.19
2023-05-13T23:42:36.323Z,24.44
2023-05-13T23:45:05.108Z,24.03
2023-05-13T23:47:33.324Z,24.87
2023-05-13T23:50:02.212Z,24.92
2023-05-13T23:52:31.768Z,24.84
2023-05-13T23:55:00.040Z,25.15
2023-05-13T23:57:28.243Z,25.39
2023-05-13T23:59:56.478Z,24.77
